sensor_id;sensor_type;location;lat;lon;timestamp;temperature;humidity
8736;DHT22;4404;49.308;12.178;2022-09-13T00:05:38;15.40;99.90
8736;DHT22;4404;49.308;12.178;2022-09-13T00:11:40;15.40;99.90
8736;DHT22;4404;49.308;12.178;2022-09-13T00:17:42;15.30;99.90
8736;DHT22;4404;49.308;12.178;2022-09-13T00:23:48;15.30;99.90
8736;DHT22;4404;49.308;12.178;2022-09-13T00:29:51;15.40;99.90
8736;DHT22;4404;49.308;12.178;2022-09-13T00:35:53;15.30;99.90
8736;DHT22;4404;49.308;12.178;2022-09-13T00:41:56;15.30;99.90
8736;DHT22;4404;49.308;12.178;2022-09-13T00:48:01;15.20;99.90
8736;DHT22;4404;49.308;12.178;2022-09-13T00:54:07;15.10;99.90
8736;DHT22;4404;49.308;12.178;2022-09-13T01:00:14;15.10;99.90
8736;DHT22;4404;49.308;12.178;2022-09-13T01:06:21;15.10;99.90
8736;DHT22;4404;49.308;12.178;2022-09-13T01:12:31;15.10;99.90
8736;DHT22;4404;49.308;12.178;2022-09-13T01:18:37;14.90;99.90
8736;DHT22;4404;49.308;12.178;2022-09-13T01:31:46;14.90;99.90
8736;DHT22;4404;49.308;12.178;2022-09-13T01:37:55;14.70;99.90
8736;DHT22;4404;49.308;12.178;2022-09-13T01:44:06;14.60;99.90
8736;DHT22;4404;49.308;12.178;2022-09-13T01:50:21;14.50;99.90
8736;DHT22;4404;49.308;12.178;2022-09-13T01:56:35;14.50;99.90
8736;DHT22;4404;49.308;12.178;2022-09-13T02:02:42;14.40;99.90
8736;DHT22;4404;49.308;12.178;2022-09-13T02:08:52;14.30;99.90
8736;DHT22;4404;49.308;12.178;2022-09-13T02:15:01;14.30;99.90
8736;DHT22;4404;49.308;12.178;2022-09-13T02:21:09;14.20;99.90
8736;DHT22;4404;49.308;12.178;2022-09-13T02:27:18;14.30;99.90
8736;DHT22;4404;49.308;12.178;2022-09-13T02:33:26;14.20;99.90
8736;DHT22;4404;49.308;12.178;2022-09-13T02:39:32;14.20;99.90
8736;DHT22;4404;49.308;12.178;2022-09-13T02:45:44;14.10;99.90
8736;DHT22;4404;49.308;12.178;2022-09-13T02:51:54;14.20;99.90
8736;DHT22;4404;49.308;12.178;2022-09-13T02:58:01;14.30;99.90
8736;DHT22;4404;49.308;12.178;2022-09-13T03:04:09;14.20;99.90
8736;DHT22;4404;49.308;12.178;2022-09-13T03:10:14;14.00;99.90
8736;DHT22;4404;49.308;12.178;2022-09-13T03:16:28;13.80;99.90
8736;DHT22;4404;49.308;12.178;2022-09-13T03:29:46;13.70;99.90
8736;DHT22;4404;49.308;12.178;2022-09-13T03:35:58;13.80;99.90
8736;DHT22;4404;49.308;12.178;2022-09-13T03:42:09;13.90;99.90
8736;DHT22;4404;49.308;12.178;2022-09-13T03:48:16;14.00;99.90
8736;DHT22;4404;49.308;12.178;2022-09-13T03:54:21;13.90;99.90
8736;DHT22;4404;49.308;12.178;2022-09-13T04:00:25;14.00;99.90
8736;DHT22;4404;49.308;12.178;2022-09-13T04:06:30;13.90;99.90
8736;DHT22;4404;49.308;12.178;2022-09-13T04:12:32;13.90;99.90
8736;DHT22;4404;49.308;12.178;2022-09-13T04:18:35;14.00;99.90
8736;DHT22;4404;49.308;12.178;2022-09-13T04:24:38;14.00;99.90
8736;DHT22;4404;49.308;12.178;2022-09-13T04:30:43;13.80;99.90
8736;DHT22;4404;49.308;12.178;2022-09-13T04:36:45;13.70;99.90
8736;DHT22;4404;49.308;12.178;2022-09-13T04:42:49;13.50;99.90
8736;DHT22;4404;49.308;12.178;2022-09-13T04:48:51;13.50;99.90
8736;DHT22;4404;49.308;12.178;2022-09-13T04:54:53;13.50;99.90
8736;DHT22;4404;49.308;12.178;2022-09-13T05:01:01;13.60;99.90
8736;DHT22;4404;49.308;12.178;2022-09-13T05:07:04;13.60;99.90
8736;DHT22;4404;49.308;12.178;2022-09-13T05:13:06;13.60;99.90
8736;DHT22;4404;49.308;12.178;2022-09-13T05:19:11;13.50;99.90
8736;DHT22;4404;49.308;12.178;2022-09-13T05:25:13;13.40;99.90
8736;DHT22;4404;49.308;12.178;2022-09-13T05:31:17;13.30;99.90
8736;DHT22;4404;49.308;12.178;2022-09-13T05:37:22;13.20;99.90
8736;DHT22;4404;49.308;12.178;2022-09-13T05:43:24;13.30;99.90
8736;DHT22;4404;49.308;12.178;2022-09-13T05:49:28;13.40;99.90
8736;DHT22;4404;49.308;12.178;2022-09-13T05:55:31;13.60;99.90
8736;DHT22;4404;49.308;12.178;2022-09-13T06:01:34;13.60;99.90
8736;DHT22;4404;49.308;12.178;2022-09-13T06:07:39;13.80;99.90
8736;DHT22;4404;49.308;12.178;2022-09-13T06:13:43;13.60;99.90
8736;DHT22;4404;49.308;12.178;2022-09-13T06:19:45;13.50;99.90
8736;DHT22;4404;49.308;12.178;2022-09-13T06:25:47;13.40;99.90
8736;DHT22;4404;49.308;12.178;2022-09-13T06:31:50;13.50;99.90
8736;DHT22;4404;49.308;12.178;2022-09-13T06:37:54;13.60;99.90
8736;DHT22;4404;49.308;12.178;2022-09-13T06:43:59;13.60;99.90
8736;DHT22;4404;49.308;12.178;2022-09-13T06:50:03;13.60;99.90
8736;DHT22;4404;49.308;12.178;2022-09-13T06:56:08;13.60;99.90
8736;DHT22;4404;49.308;12.178;2022-09-13T07:02:11;13.80;99.90
8736;DHT22;4404;49.308;12.178;2022-09-13T07:08:15;13.80;99.90
8736;DHT22;4404;49.308;12.178;2022-09-13T07:14:18;14.10;99.90
8736;DHT22;4404;49.308;12.178;2022-09-13T07:20:21;14.30;99.90
8736;DHT22;4404;49.308;12.178;2022-09-13T07:26:26;14.50;99.90
8736;DHT22;4404;49.308;12.178;2022-09-13T07:32:31;14.70;99.90
8736;DHT22;4404;49.308;12.178;2022-09-13T07:38:33;14.80;99.90
8736;DHT22;4404;49.308;12.178;2022-09-13T07:44:37;14.90;99.90
8736;DHT22;4404;49.308;12.178;2022-09-13T07:50:39;14.90;99.90
8736;DHT22;4404;49.308;12.178;2022-09-13T07:56:42;14.70;99.90
8736;DHT22;4404;49.308;12.178;2022-09-13T08:02:46;14.70;99.90
8736;DHT22;4404;49.308;12.178;2022-09-13T08:08:48;14.60;99.90
8736;DHT22;4404;49.308;12.178;2022-09-13T08:14:50;14.50;99.90
8736;DHT22;4404;49.308;12.178;2022-09-13T08:20:56;14.70;99.90
8736;DHT22;4404;49.308;12.178;2022-09-13T08:26:58;14.90;99.90
8736;DHT22;4404;49.308;12.178;2022-09-13T08:33:01;15.00;99.90
8736;DHT22;4404;49.308;12.178;2022-09-13T08:39:06;15.30;99.90
8736;DHT22;4404;49.308;12.178;2022-09-13T08:45:09;15.80;99.90
8736;DHT22;4404;49.308;12.178;2022-09-13T08:51:25;15.90;99.90
8736;DHT22;4404;49.308;12.178;2022-09-13T08:57:35;16.30;99.90
8736;DHT22;4404;49.308;12.178;2022-09-13T09:03:48;16.70;99.90
8736;DHT22;4404;49.308;12.178;2022-09-13T09:09:59;17.10;99.90
8736;DHT22;4404;49.308;12.178;2022-09-13T09:16:14;17.30;99.90
8736;DHT22;4404;49.308;12.178;2022-09-13T09:22:23;17.60;99.90
8736;DHT22;4404;49.308;12.178;2022-09-13T09:28:31;17.90;99.90
8736;DHT22;4404;49.308;12.178;2022-09-13T09:34:43;18.10;99.90
8736;DHT22;4404;49.308;12.178;2022-09-13T09:40:53;18.40;99.90
8736;DHT22;4404;49.308;12.178;2022-09-13T09:47:01;18.50;99.90
8736;DHT22;4404;49.308;12.178;2022-09-13T09:53:10;18.60;99.90
8736;DHT22;4404;49.308;12.178;2022-09-13T09:59:25;18.80;99.90
8736;DHT22;4404;49.308;12.178;2022-09-13T10:05:28;18.80;99.90
8736;DHT22;4404;49.308;12.178;2022-09-13T10:11:44;18.70;99.90
8736;DHT22;4404;49.308;12.178;2022-09-13T10:18:02;18.60;99.90
8736;DHT22;4404;49.308;12.178;2022-09-13T10:24:19;18.50;99.90
8736;DHT22;4404;49.308;12.178;2022-09-13T10:30:31;18.50;99.90
8736;DHT22;4404;49.308;12.178;2022-09-13T10:36:35;18.60;99.90
8736;DHT22;4404;49.308;12.178;2022-09-13T10:42:38;18.70;99.90
8736;DHT22;4404;49.308;12.178;2022-09-13T10:48:46;18.80;99.90
8736;DHT22;4404;49.308;12.178;2022-09-13T10:55:19;18.90;99.90
8736;DHT22;4404;49.308;12.178;2022-09-13T11:01:37;18.90;99.90
8736;DHT22;4404;49.308;12.178;2022-09-13T11:08:12;18.80;99.90
8736;DHT22;4404;49.308;12.178;2022-09-13T11:14:40;18.80;99.90
8736;DHT22;4404;49.308;12.178;2022-09-13T11:20:54;18.80;99.90
8736;DHT22;4404;49.308;12.178;2022-09-13T11:27:08;18.80;99.90
8736;DHT22;4404;49.308;12.178;2022-09-13T11:33:27;18.70;99.90
8736;DHT22;4404;49.308;12.178;2022-09-13T11:39:37;18.60;99.90
8736;DHT22;4404;49.308;12.178;2022-09-13T11:45:46;18.70;99.90
8736;DHT22;4404;49.308;12.178;2022-09-13T11:52:02;18.70;99.90
8736;DHT22;4404;49.308;12.178;2022-09-13T11:58:13;18.70;99.90
8736;DHT22;4404;49.308;12.178;2022-09-13T12:04:24;18.80;99.90
8736;DHT22;4404;49.308;12.178;2022-09-13T12:10:31;19.00;99.90
8736;DHT22;4404;49.308;12.178;2022-09-13T12:16:38;19.40;99.90
8736;DHT22;4404;49.308;12.178;2022-09-13T12:22:45;19.60;99.90
8736;DHT22;4404;49.308;12.178;2022-09-13T12:28:53;19.70;99.90
8736;DHT22;4404;49.308;12.178;2022-09-13T12:35:03;19.80;99.90
8736;DHT22;4404;49.308;12.178;2022-09-13T12:41:32;19.80;99.90
8736;DHT22;4404;49.308;12.178;2022-09-13T12:54:33;19.80;99.90
8736;DHT22;4404;49.308;12.178;2022-09-13T13:00:57;19.90;99.90
8736;DHT22;4404;49.308;12.178;2022-09-13T13:07:20;19.80;99.90
8736;DHT22;4404;49.308;12.178;2022-09-13T13:13:37;19.70;99.90
8736;DHT22;4404;49.308;12.178;2022-09-13T13:19:41;19.70;99.90
8736;DHT22;4404;49.308;12.178;2022-09-13T13:26:09;19.60;99.90
8736;DHT22;4404;49.308;12.178;2022-09-13T13:32:13;19.70;99.90
8736;DHT22;4404;49.308;12.178;2022-09-13T13:38:40;19.60;99.90
8736;DHT22;4404;49.308;12.178;2022-09-13T13:45:05;19.60;99.90
8736;DHT22;4404;49.308;12.178;2022-09-13T13:51:26;19.60;99.90
8736;DHT22;4404;49.308;12.178;2022-09-13T13:57:32;19.50;99.90
8736;DHT22;4404;49.308;12.178;2022-09-13T14:03:51;19.40;99.90
8736;DHT22;4404;49.308;12.178;2022-09-13T14:10:10;19.40;99.90
8736;DHT22;4404;49.308;12.178;2022-09-13T14:16:26;19.50;99.90
8736;DHT22;4404;49.308;12.178;2022-09-13T14:22:35;19.50;99.90
8736;DHT22;4404;49.308;12.178;2022-09-13T14:28:37;19.50;99.90
8736;DHT22;4404;49.308;12.178;2022-09-13T14:34:51;19.60;99.90
8736;DHT22;4404;49.308;12.178;2022-09-13T14:41:01;19.50;99.90
8736;DHT22;4404;49.308;12.178;2022-09-13T14:47:19;19.50;99.90
8736;DHT22;4404;49.308;12.178;2022-09-13T14:53:28;19.60;99.90
8736;DHT22;4404;49.308;12.178;2022-09-13T14:59:35;19.50;99.90
8736;DHT22;4404;49.308;12.178;2022-09-13T15:05:50;19.50;99.90
8736;DHT22;4404;49.308;12.178;2022-09-13T15:11:59;19.60;99.90
8736;DHT22;4404;49.308;12.178;2022-09-13T15:18:23;19.70;99.90
8736;DHT22;4404;49.308;12.178;2022-09-13T15:24:30;19.80;99.90
8736;DHT22;4404;49.308;12.178;2022-09-13T15:30:39;19.90;99.90
8736;DHT22;4404;49.308;12.178;2022-09-13T15:36:42;20.00;99.90
8736;DHT22;4404;49.308;12.178;2022-09-13T15:42:46;20.00;99.90
8736;DHT22;4404;49.308;12.178;2022-09-13T15:48:52;20.00;99.90
8736;DHT22;4404;49.308;12.178;2022-09-13T15:54:55;19.90;99.90
8736;DHT22;4404;49.308;12.178;2022-09-13T16:00:57;19.90;99.90
8736;DHT22;4404;49.308;12.178;2022-09-13T16:07:01;20.00;99.90
8736;DHT22;4404;49.308;12.178;2022-09-13T16:13:04;20.00;99.90
8736;DHT22;4404;49.308;12.178;2022-09-13T16:19:11;20.00;99.90
8736;DHT22;4404;49.308;12.178;2022-09-13T16:25:17;20.00;99.90
8736;DHT22;4404;49.308;12.178;2022-09-13T16:31:19;20.00;99.90
8736;DHT22;4404;49.308;12.178;2022-09-13T16:37:21;20.00;99.90
8736;DHT22;4404;49.308;12.178;2022-09-13T16:43:25;20.00;99.90
8736;DHT22;4404;49.308;12.178;2022-09-13T16:49:27;19.80;99.90
8736;DHT22;4404;49.308;12.178;2022-09-13T16:55:30;19.80;99.90
8736;DHT22;4404;49.308;12.178;2022-09-13T17:01:33;19.80;99.90
8736;DHT22;4404;49.308;12.178;2022-09-13T17:07:36;19.90;99.90
8736;DHT22;4404;49.308;12.178;2022-09-13T17:13:39;19.80;99.90
8736;DHT22;4404;49.308;12.178;2022-09-13T17:19:45;19.80;99.90
8736;DHT22;4404;49.308;12.178;2022-09-13T17:25:48;19.60;99.90
8736;DHT22;4404;49.308;12.178;2022-09-13T17:32:00;19.60;99.90
8736;DHT22;4404;49.308;12.178;2022-09-13T17:38:05;19.50;99.90
8736;DHT22;4404;49.308;12.178;2022-09-13T17:44:07;19.30;99.90
8736;DHT22;4404;49.308;12.178;2022-09-13T17:50:12;19.30;99.90
8736;DHT22;4404;49.308;12.178;2022-09-13T17:56:23;19.20;99.90
8736;DHT22;4404;49.308;12.178;2022-09-13T18:02:37;19.20;99.90
8736;DHT22;4404;49.308;12.178;2022-09-13T18:08:40;19.10;99.90
8736;DHT22;4404;49.308;12.178;2022-09-13T18:14:44;19.10;99.90
8736;DHT22;4404;49.308;12.178;2022-09-13T18:20:49;19.00;99.90
8736;DHT22;4404;49.308;12.178;2022-09-13T18:26:52;18.90;99.90
8736;DHT22;4404;49.308;12.178;2022-09-13T18:32:55;18.90;99.90
8736;DHT22;4404;49.308;12.178;2022-09-13T18:38:58;18.90;99.90
8736;DHT22;4404;49.308;12.178;2022-09-13T18:45:05;18.90;99.90
8736;DHT22;4404;49.308;12.178;2022-09-13T18:51:13;18.80;99.90
8736;DHT22;4404;49.308;12.178;2022-09-13T18:57:17;18.80;99.90
8736;DHT22;4404;49.308;12.178;2022-09-13T19:03:22;18.80;99.90
8736;DHT22;4404;49.308;12.178;2022-09-13T19:09:26;18.80;99.90
8736;DHT22;4404;49.308;12.178;2022-09-13T19:15:28;18.80;99.90
8736;DHT22;4404;49.308;12.178;2022-09-13T19:21:31;18.70;99.90
8736;DHT22;4404;49.308;12.178;2022-09-13T19:27:35;18.70;99.90
8736;DHT22;4404;49.308;12.178;2022-09-13T19:33:39;18.70;99.90
8736;DHT22;4404;49.308;12.178;2022-09-13T19:39:42;18.70;99.90
8736;DHT22;4404;49.308;12.178;2022-09-13T19:45:55;18.70;99.90
8736;DHT22;4404;49.308;12.178;2022-09-13T19:51:58;18.70;99.90
8736;DHT22;4404;49.308;12.178;2022-09-13T19:58:01;18.60;99.90
8736;DHT22;4404;49.308;12.178;2022-09-13T20:04:06;18.60;99.90
8736;DHT22;4404;49.308;12.178;2022-09-13T20:10:10;18.60;99.90
8736;DHT22;4404;49.308;12.178;2022-09-13T20:16:16;18.60;99.90
8736;DHT22;4404;49.308;12.178;2022-09-13T20:22:20;18.50;99.90
8736;DHT22;4404;49.308;12.178;2022-09-13T20:28:23;18.40;99.90
8736;DHT22;4404;49.308;12.178;2022-09-13T20:34:25;18.50;99.90
8736;DHT22;4404;49.308;12.178;2022-09-13T20:40:29;18.50;99.90
8736;DHT22;4404;49.308;12.178;2022-09-13T20:46:33;18.40;99.90
8736;DHT22;4404;49.308;12.178;2022-09-13T20:52:37;18.30;99.90
8736;DHT22;4404;49.308;12.178;2022-09-13T20:58:42;18.30;99.90
8736;DHT22;4404;49.308;12.178;2022-09-13T21:04:45;18.20;99.90
8736;DHT22;4404;49.308;12.178;2022-09-13T21:10:56;18.20;99.90
8736;DHT22;4404;49.308;12.178;2022-09-13T21:17:04;18.20;99.90
8736;DHT22;4404;49.308;12.178;2022-09-13T21:23:08;18.10;99.90
8736;DHT22;4404;49.308;12.178;2022-09-13T21:29:11;18.10;99.90
8736;DHT22;4404;49.308;12.178;2022-09-13T21:35:18;18.00;99.90
8736;DHT22;4404;49.308;12.178;2022-09-13T21:41:23;18.00;99.90
8736;DHT22;4404;49.308;12.178;2022-09-13T21:47:26;18.00;99.90
8736;DHT22;4404;49.308;12.178;2022-09-13T21:53:36;18.10;99.90
8736;DHT22;4404;49.308;12.178;2022-09-13T21:59:39;18.00;99.90
8736;DHT22;4404;49.308;12.178;2022-09-13T22:05:41;18.00;99.90
8736;DHT22;4404;49.308;12.178;2022-09-13T22:11:46;17.90;99.90
8736;DHT22;4404;49.308;12.178;2022-09-13T22:17:50;17.90;99.90
8736;DHT22;4404;49.308;12.178;2022-09-13T22:23:53;17.90;99.90
8736;DHT22;4404;49.308;12.178;2022-09-13T22:29:57;17.90;99.90
8736;DHT22;4404;49.308;12.178;2022-09-13T22:36:02;17.90;99.90
8736;DHT22;4404;49.308;12.178;2022-09-13T22:42:06;17.90;99.90
8736;DHT22;4404;49.308;12.178;2022-09-13T22:48:14;17.90;99.90
8736;DHT22;4404;49.308;12.178;2022-09-13T22:54:18;17.80;99.90
8736;DHT22;4404;49.308;12.178;2022-09-13T23:00:21;17.80;99.90
8736;DHT22;4404;49.308;12.178;2022-09-13T23:06:25;17.80;99.90
8736;DHT22;4404;49.308;12.178;2022-09-13T23:12:29;17.80;99.90
8736;DHT22;4404;49.308;12.178;2022-09-13T23:18:31;17.80;99.90
8736;DHT22;4404;49.308;12.178;2022-09-13T23:24:36;17.70;99.90
8736;DHT22;4404;49.308;12.178;2022-09-13T23:30:38;17.60;99.90
8736;DHT22;4404;49.308;12.178;2022-09-13T23:42:59;17.80;99.90
8736;DHT22;4404;49.308;12.178;2022-09-13T23:49:03;17.80;99.90
8736;DHT22;4404;49.308;12.178;2022-09-13T23:55:06;17.80;99.90
